sensor_id;sensor_type;location;lat;lon;timestamp;P1;durP1;ratioP1;P2;durP2;ratioP2
4794;SDS011;2411;47.060;15.064;2023-03-23T00:00:16;3.80;;;3.50;;
4794;SDS011;2411;47.060;15.064;2023-03-23T00:02:43;3.70;;;3.50;;
4794;SDS011;2411;47.060;15.064;2023-03-23T00:05:09;3.50;;;3.20;;
4794;SDS011;2411;47.060;15.064;2023-03-23T00:07:35;3.70;;;3.40;;
4794;SDS011;2411;47.060;15.064;2023-03-23T00:10:01;3.57;;;3.23;;
4794;SDS011;2411;47.060;15.064;2023-03-23T00:12:29;3.90;;;3.60;;
4794;SDS011;2411;47.060;15.064;2023-03-23T00:15:08;4.07;;;3.63;;
4794;SDS011;2411;47.060;15.064;2023-03-23T00:17:38;3.30;;;3.10;;
4794;SDS011;2411;47.060;15.064;2023-03-23T00:20:06;3.93;;;3.33;;
4794;SDS011;2411;47.060;15.064;2023-03-23T00:22:33;5.20;;;3.20;;
4794;SDS011;2411;47.060;15.064;2023-03-23T00:25:06;4.23;;;3.83;;
4794;SDS011;2411;47.060;15.064;2023-03-23T00:27:33;4.10;;;3.50;;
4794;SDS011;2411;47.060;15.064;2023-03-23T00:29:59;3.50;;;3.20;;
4794;SDS011;2411;47.060;15.064;2023-03-23T00:32:26;5.03;;;4.10;;
4794;SDS011;2411;47.060;15.064;2023-03-23T00:34:56;5.43;;;4.10;;
4794;SDS011;2411;47.060;15.064;2023-03-23T00:37:26;4.97;;;4.60;;
4794;SDS011;2411;47.060;15.064;2023-03-23T00:39:53;4.30;;;3.70;;
4794;SDS011;2411;47.060;15.064;2023-03-23T00:42:22;8.30;;;3.70;;
4794;SDS011;2411;47.060;15.064;2023-03-23T00:44:50;3.77;;;3.47;;
4794;SDS011;2411;47.060;15.064;2023-03-23T00:47:16;4.40;;;4.00;;
4794;SDS011;2411;47.060;15.064;2023-03-23T00:49:42;3.60;;;3.30;;
4794;SDS011;2411;47.060;15.064;2023-03-23T00:52:09;3.43;;;3.10;;
4794;SDS011;2411;47.060;15.064;2023-03-23T00:54:36;4.30;;;3.90;;
4794;SDS011;2411;47.060;15.064;2023-03-23T00:57:03;3.60;;;3.30;;
4794;SDS011;2411;47.060;15.064;2023-03-23T00:59:30;3.57;;;3.30;;
4794;SDS011;2411;47.060;15.064;2023-03-23T01:01:56;5.90;;;3.17;;
4794;SDS011;2411;47.060;15.064;2023-03-23T01:04:22;4.90;;;3.73;;
4794;SDS011;2411;47.060;15.064;2023-03-23T01:06:49;4.80;;;4.40;;
4794;SDS011;2411;47.060;15.064;2023-03-23T01:09:17;4.07;;;3.67;;
4794;SDS011;2411;47.060;15.064;2023-03-23T01:11:47;3.60;;;3.30;;
4794;SDS011;2411;47.060;15.064;2023-03-23T01:14:15;3.90;;;3.60;;
4794;SDS011;2411;47.060;15.064;2023-03-23T01:16:42;4.80;;;3.63;;
4794;SDS011;2411;47.060;15.064;2023-03-23T01:19:08;3.60;;;3.40;;
4794;SDS011;2411;47.060;15.064;2023-03-23T01:21:35;3.77;;;3.47;;
4794;SDS011;2411;47.060;15.064;2023-03-23T01:24:01;5.33;;;4.13;;
4794;SDS011;2411;47.060;15.064;2023-03-23T01:26:28;3.40;;;3.20;;
4794;SDS011;2411;47.060;15.064;2023-03-23T01:28:54;3.57;;;3.27;;
4794;SDS011;2411;47.060;15.064;2023-03-23T01:31:22;4.17;;;3.77;;
4794;SDS011;2411;47.060;15.064;2023-03-23T01:33:50;4.20;;;3.80;;
4794;SDS011;2411;47.060;15.064;2023-03-23T01:36:17;4.40;;;4.00;;
4794;SDS011;2411;47.060;15.064;2023-03-23T01:38:46;5.83;;;4.13;;
4794;SDS011;2411;47.060;15.064;2023-03-23T01:41:14;3.90;;;3.60;;
4794;SDS011;2411;47.060;15.064;2023-03-23T01:46:33;3.37;;;3.03;;
4794;SDS011;2411;47.060;15.064;2023-03-23T01:49:21;4.83;;;3.90;;
4794;SDS011;2411;47.060;15.064;2023-03-23T01:52:00;4.23;;;3.30;;
4794;SDS011;2411;47.060;15.064;2023-03-23T01:54:30;3.87;;;3.00;;
4794;SDS011;2411;47.060;15.064;2023-03-23T01:57:01;3.70;;;3.43;;
4794;SDS011;2411;47.060;15.064;2023-03-23T01:59:31;3.37;;;3.10;;
4794;SDS011;2411;47.060;15.064;2023-03-23T02:02:00;3.40;;;3.20;;
4794;SDS011;2411;47.060;15.064;2023-03-23T02:04:27;3.83;;;3.13;;
4794;SDS011;2411;47.060;15.064;2023-03-23T02:06:55;4.90;;;3.30;;
4794;SDS011;2411;47.060;15.064;2023-03-23T02:09:26;3.70;;;3.50;;
4794;SDS011;2411;47.060;15.064;2023-03-23T02:11:52;7.13;;;3.83;;
4794;SDS011;2411;47.060;15.064;2023-03-23T02:14:19;4.30;;;3.90;;
4794;SDS011;2411;47.060;15.064;2023-03-23T02:28:12;3.53;;;3.17;;
4794;SDS011;2411;47.060;15.064;2023-03-23T02:36:22;3.40;;;3.20;;
4794;SDS011;2411;47.060;15.064;2023-03-23T02:41:55;3.03;;;2.83;;
4794;SDS011;2411;47.060;15.064;2023-03-23T02:44:30;4.20;;;3.90;;
4794;SDS011;2411;47.060;15.064;2023-03-23T02:46:59;4.37;;;3.40;;
4794;SDS011;2411;47.060;15.064;2023-03-23T02:49:29;4.40;;;4.00;;
4794;SDS011;2411;47.060;15.064;2023-03-23T02:51:58;4.90;;;3.90;;
4794;SDS011;2411;47.060;15.064;2023-03-23T02:54:26;4.50;;;4.10;;
4794;SDS011;2411;47.060;15.064;2023-03-23T02:56:54;4.03;;;3.73;;
4794;SDS011;2411;47.060;15.064;2023-03-23T02:59:21;4.93;;;3.93;;
4794;SDS011;2411;47.060;15.064;2023-03-23T03:01:51;4.77;;;4.37;;
4794;SDS011;2411;47.060;15.064;2023-03-23T03:04:40;3.83;;;3.60;;
4794;SDS011;2411;47.060;15.064;2023-03-23T03:09:50;4.77;;;4.20;;
4794;SDS011;2411;47.060;15.064;2023-03-23T03:12:38;5.00;;;4.20;;
4794;SDS011;2411;47.060;15.064;2023-03-23T03:17:51;4.20;;;3.90;;
4794;SDS011;2411;47.060;15.064;2023-03-23T03:20:23;4.23;;;3.93;;
4794;SDS011;2411;47.060;15.064;2023-03-23T03:22:51;6.50;;;4.00;;
4794;SDS011;2411;47.060;15.064;2023-03-23T03:25:19;4.70;;;4.00;;
4794;SDS011;2411;47.060;15.064;2023-03-23T03:27:45;3.10;;;3.00;;
4794;SDS011;2411;47.060;15.064;2023-03-23T03:30:15;3.57;;;3.37;;
4794;SDS011;2411;47.060;15.064;2023-03-23T03:32:51;3.77;;;3.53;;
4794;SDS011;2411;47.060;15.064;2023-03-23T03:35:19;3.80;;;3.50;;
4794;SDS011;2411;47.060;15.064;2023-03-23T03:37:47;3.77;;;3.50;;
4794;SDS011;2411;47.060;15.064;2023-03-23T03:40:15;6.87;;;3.90;;
4794;SDS011;2411;47.060;15.064;2023-03-23T03:42:44;4.57;;;4.17;;
4794;SDS011;2411;47.060;15.064;2023-03-23T03:45:12;3.37;;;3.10;;
4794;SDS011;2411;47.060;15.064;2023-03-23T03:47:39;3.47;;;3.27;;
4794;SDS011;2411;47.060;15.064;2023-03-23T03:50:06;3.27;;;3.17;;
4794;SDS011;2411;47.060;15.064;2023-03-23T03:52:33;3.70;;;3.40;;
4794;SDS011;2411;47.060;15.064;2023-03-23T03:54:59;4.17;;;3.77;;
4794;SDS011;2411;47.060;15.064;2023-03-23T03:57:25;3.60;;;3.30;;
4794;SDS011;2411;47.060;15.064;2023-03-23T03:59:51;4.17;;;3.77;;
4794;SDS011;2411;47.060;15.064;2023-03-23T04:02:18;4.10;;;3.73;;
4794;SDS011;2411;47.060;15.064;2023-03-23T04:04:49;4.63;;;4.00;;
4794;SDS011;2411;47.060;15.064;2023-03-23T04:07:17;4.43;;;4.03;;
4794;SDS011;2411;47.060;15.064;2023-03-23T04:09:43;4.13;;;3.73;;
4794;SDS011;2411;47.060;15.064;2023-03-23T04:12:14;4.40;;;4.00;;
4794;SDS011;2411;47.060;15.064;2023-03-23T04:14:41;3.70;;;3.50;;
4794;SDS011;2411;47.060;15.064;2023-03-23T04:17:07;4.63;;;3.73;;
4794;SDS011;2411;47.060;15.064;2023-03-23T04:19:36;4.60;;;3.67;;
4794;SDS011;2411;47.060;15.064;2023-03-23T04:22:04;4.17;;;3.47;;
4794;SDS011;2411;47.060;15.064;2023-03-23T04:24:30;4.87;;;4.47;;
4794;SDS011;2411;47.060;15.064;2023-03-23T04:26:59;4.30;;;3.90;;
4794;SDS011;2411;47.060;15.064;2023-03-23T04:29:25;3.80;;;3.60;;
4794;SDS011;2411;47.060;15.064;2023-03-23T04:31:52;5.00;;;4.10;;
4794;SDS011;2411;47.060;15.064;2023-03-23T04:34:18;3.77;;;3.57;;
4794;SDS011;2411;47.060;15.064;2023-03-23T04:36:44;5.47;;;4.10;;
4794;SDS011;2411;47.060;15.064;2023-03-23T04:39:11;12.73;;;4.17;;
4794;SDS011;2411;47.060;15.064;2023-03-23T04:41:39;5.10;;;3.60;;
4794;SDS011;2411;47.060;15.064;2023-03-23T04:44:06;3.80;;;3.60;;
4794;SDS011;2411;47.060;15.064;2023-03-23T04:46:32;4.30;;;3.70;;
4794;SDS011;2411;47.060;15.064;2023-03-23T04:48:59;5.23;;;3.70;;
4794;SDS011;2411;47.060;15.064;2023-03-23T04:51:25;4.30;;;4.00;;
4794;SDS011;2411;47.060;15.064;2023-03-23T04:53:52;4.40;;;4.00;;
4794;SDS011;2411;47.060;15.064;2023-03-23T04:56:19;3.90;;;3.60;;
4794;SDS011;2411;47.060;15.064;2023-03-23T04:58:45;4.50;;;4.10;;
4794;SDS011;2411;47.060;15.064;2023-03-23T05:01:12;6.50;;;3.73;;
4794;SDS011;2411;47.060;15.064;2023-03-23T05:03:43;5.00;;;4.60;;
4794;SDS011;2411;47.060;15.064;2023-03-23T05:06:10;4.07;;;3.77;;
4794;SDS011;2411;47.060;15.064;2023-03-23T05:08:36;4.80;;;4.40;;
4794;SDS011;2411;47.060;15.064;2023-03-23T05:11:05;4.27;;;3.97;;
4794;SDS011;2411;47.060;15.064;2023-03-23T05:13:32;4.10;;;3.80;;
4794;SDS011;2411;47.060;15.064;2023-03-23T05:15:58;4.33;;;4.03;;
4794;SDS011;2411;47.060;15.064;2023-03-23T05:18:28;3.83;;;3.63;;
4794;SDS011;2411;47.060;15.064;2023-03-23T05:20:54;4.87;;;4.37;;
4794;SDS011;2411;47.060;15.064;2023-03-23T05:23:20;4.07;;;3.77;;
4794;SDS011;2411;47.060;15.064;2023-03-23T05:25:53;5.37;;;3.63;;
4794;SDS011;2411;47.060;15.064;2023-03-23T05:28:20;4.93;;;4.30;;
4794;SDS011;2411;47.060;15.064;2023-03-23T05:30:47;3.57;;;3.27;;
4794;SDS011;2411;47.060;15.064;2023-03-23T05:33:14;4.30;;;4.00;;
4794;SDS011;2411;47.060;15.064;2023-03-23T05:35:40;4.40;;;3.70;;
4794;SDS011;2411;47.060;15.064;2023-03-23T05:38:07;7.67;;;3.97;;
4794;SDS011;2411;47.060;15.064;2023-03-23T05:40:33;6.30;;;4.00;;
4794;SDS011;2411;47.060;15.064;2023-03-23T05:42:59;4.70;;;3.83;;
4794;SDS011;2411;47.060;15.064;2023-03-23T05:45:26;6.60;;;5.17;;
4794;SDS011;2411;47.060;15.064;2023-03-23T05:47:52;6.27;;;5.70;;
4794;SDS011;2411;47.060;15.064;2023-03-23T05:50:18;10.63;;;6.50;;
4794;SDS011;2411;47.060;15.064;2023-03-23T05:52:44;5.70;;;5.17;;
4794;SDS011;2411;47.060;15.064;2023-03-23T05:55:10;7.60;;;5.90;;
4794;SDS011;2411;47.060;15.064;2023-03-23T05:57:37;12.50;;;5.07;;
4794;SDS011;2411;47.060;15.064;2023-03-23T06:00:04;9.63;;;5.17;;
4794;SDS011;2411;47.060;15.064;2023-03-23T06:02:44;10.23;;;4.50;;
4794;SDS011;2411;47.060;15.064;2023-03-23T06:05:11;5.57;;;5.10;;
4794;SDS011;2411;47.060;15.064;2023-03-23T06:07:37;6.50;;;4.77;;
4794;SDS011;2411;47.060;15.064;2023-03-23T06:10:04;7.13;;;5.33;;
4794;SDS011;2411;47.060;15.064;2023-03-23T06:12:32;5.10;;;4.70;;
4794;SDS011;2411;47.060;15.064;2023-03-23T06:14:58;5.20;;;4.73;;
4794;SDS011;2411;47.060;15.064;2023-03-23T06:17:24;4.83;;;4.47;;
4794;SDS011;2411;47.060;15.064;2023-03-23T06:19:50;7.20;;;4.77;;
4794;SDS011;2411;47.060;15.064;2023-03-23T06:22:17;7.13;;;4.07;;
4794;SDS011;2411;47.060;15.064;2023-03-23T06:24:43;4.77;;;4.37;;
4794;SDS011;2411;47.060;15.064;2023-03-23T06:27:10;4.03;;;3.53;;
4794;SDS011;2411;47.060;15.064;2023-03-23T06:29:36;4.80;;;4.40;;
4794;SDS011;2411;47.060;15.064;2023-03-23T06:32:03;5.57;;;4.47;;
4794;SDS011;2411;47.060;15.064;2023-03-23T06:34:30;9.83;;;4.87;;
4794;SDS011;2411;47.060;15.064;2023-03-23T06:36:58;5.30;;;4.80;;
4794;SDS011;2411;47.060;15.064;2023-03-23T06:39:24;5.47;;;4.97;;
4794;SDS011;2411;47.060;15.064;2023-03-23T06:41:50;4.70;;;4.40;;
4794;SDS011;2411;47.060;15.064;2023-03-23T06:44:17;6.13;;;5.13;;
4794;SDS011;2411;47.060;15.064;2023-03-23T06:46:43;7.70;;;5.00;;
4794;SDS011;2411;47.060;15.064;2023-03-23T06:49:09;7.20;;;4.73;;
4794;SDS011;2411;47.060;15.064;2023-03-23T06:51:36;7.33;;;5.40;;
4794;SDS011;2411;47.060;15.064;2023-03-23T06:54:03;5.20;;;4.80;;
4794;SDS011;2411;47.060;15.064;2023-03-23T06:56:30;5.30;;;4.90;;
4794;SDS011;2411;47.060;15.064;2023-03-23T06:58:56;8.10;;;4.80;;
4794;SDS011;2411;47.060;15.064;2023-03-23T07:01:23;7.80;;;5.10;;
4794;SDS011;2411;47.060;15.064;2023-03-23T07:03:49;4.97;;;4.57;;
4794;SDS011;2411;47.060;15.064;2023-03-23T07:06:15;5.20;;;4.70;;
4794;SDS011;2411;47.060;15.064;2023-03-23T07:08:41;4.17;;;3.90;;
4794;SDS011;2411;47.060;15.064;2023-03-23T07:11:08;4.40;;;4.00;;
4794;SDS011;2411;47.060;15.064;2023-03-23T07:13:36;3.60;;;3.40;;
4794;SDS011;2411;47.060;15.064;2023-03-23T07:16:04;4.17;;;3.77;;
4794;SDS011;2411;47.060;15.064;2023-03-23T07:18:31;3.73;;;3.43;;
4794;SDS011;2411;47.060;15.064;2023-03-23T07:20:57;4.30;;;3.90;;
4794;SDS011;2411;47.060;15.064;2023-03-23T07:23:24;10.30;;;3.70;;
4794;SDS011;2411;47.060;15.064;2023-03-23T07:25:50;5.23;;;3.50;;
4794;SDS011;2411;47.060;15.064;2023-03-23T07:28:17;3.63;;;3.43;;
4794;SDS011;2411;47.060;15.064;2023-03-23T07:30:44;5.90;;;3.70;;
4794;SDS011;2411;47.060;15.064;2023-03-23T07:33:10;4.27;;;3.97;;
4794;SDS011;2411;47.060;15.064;2023-03-23T07:35:36;3.50;;;3.30;;
4794;SDS011;2411;47.060;15.064;2023-03-23T07:38:03;5.03;;;3.40;;
4794;SDS011;2411;47.060;15.064;2023-03-23T07:40:31;4.50;;;4.10;;
4794;SDS011;2411;47.060;15.064;2023-03-23T07:42:58;6.60;;;3.63;;
4794;SDS011;2411;47.060;15.064;2023-03-23T07:45:25;6.60;;;3.60;;
4794;SDS011;2411;47.060;15.064;2023-03-23T07:47:52;4.43;;;3.63;;
4794;SDS011;2411;47.060;15.064;2023-03-23T07:50:18;9.70;;;3.87;;
4794;SDS011;2411;47.060;15.064;2023-03-23T07:52:50;12.00;;;3.87;;
4794;SDS011;2411;47.060;15.064;2023-03-23T07:55:18;3.50;;;3.20;;
4794;SDS011;2411;47.060;15.064;2023-03-23T07:57:45;3.73;;;3.43;;
4794;SDS011;2411;47.060;15.064;2023-03-23T08:00:14;4.00;;;3.70;;
4794;SDS011;2411;47.060;15.064;2023-03-23T08:02:47;5.00;;;3.47;;
4794;SDS011;2411;47.060;15.064;2023-03-23T08:05:15;3.90;;;3.50;;
4794;SDS011;2411;47.060;15.064;2023-03-23T08:07:43;4.20;;;3.33;;
4794;SDS011;2411;47.060;15.064;2023-03-23T08:10:11;4.60;;;4.20;;
4794;SDS011;2411;47.060;15.064;2023-03-23T08:12:41;4.50;;;4.00;;
4794;SDS011;2411;47.060;15.064;2023-03-23T08:15:09;4.73;;;3.50;;
4794;SDS011;2411;47.060;15.064;2023-03-23T08:17:40;6.00;;;3.43;;
4794;SDS011;2411;47.060;15.064;2023-03-23T08:20:07;4.87;;;3.83;;
4794;SDS011;2411;47.060;15.064;2023-03-23T08:22:38;5.50;;;3.87;;
4794;SDS011;2411;47.060;15.064;2023-03-23T08:25:25;3.90;;;3.60;;
4794;SDS011;2411;47.060;15.064;2023-03-23T08:27:52;4.23;;;3.13;;
4794;SDS011;2411;47.060;15.064;2023-03-23T08:30:19;5.40;;;4.53;;
4794;SDS011;2411;47.060;15.064;2023-03-23T08:32:47;7.10;;;3.60;;
4794;SDS011;2411;47.060;15.064;2023-03-23T08:35:15;4.57;;;4.17;;
4794;SDS011;2411;47.060;15.064;2023-03-23T08:37:41;7.40;;;4.20;;
4794;SDS011;2411;47.060;15.064;2023-03-23T08:40:09;5.47;;;4.47;;
4794;SDS011;2411;47.060;15.064;2023-03-23T08:42:37;8.50;;;5.27;;
4794;SDS011;2411;47.060;15.064;2023-03-23T08:45:05;9.73;;;5.70;;
4794;SDS011;2411;47.060;15.064;2023-03-23T08:47:33;12.03;;;6.00;;
4794;SDS011;2411;47.060;15.064;2023-03-23T08:50:01;14.03;;;6.67;;
4794;SDS011;2411;47.060;15.064;2023-03-23T08:52:28;16.37;;;6.43;;
4794;SDS011;2411;47.060;15.064;2023-03-23T08:54:54;6.83;;;6.10;;
4794;SDS011;2411;47.060;15.064;2023-03-23T08:57:22;10.90;;;6.67;;
4794;SDS011;2411;47.060;15.064;2023-03-23T08:59:51;13.77;;;6.70;;
4794;SDS011;2411;47.060;15.064;2023-03-23T09:02:20;7.77;;;5.90;;
4794;SDS011;2411;47.060;15.064;2023-03-23T09:04:46;10.90;;;6.50;;
4794;SDS011;2411;47.060;15.064;2023-03-23T09:07:12;13.97;;;6.17;;
4794;SDS011;2411;47.060;15.064;2023-03-23T09:09:40;15.67;;;6.67;;
4794;SDS011;2411;47.060;15.064;2023-03-23T09:12:09;11.50;;;6.17;;
4794;SDS011;2411;47.060;15.064;2023-03-23T09:14:36;9.60;;;6.67;;
4794;SDS011;2411;47.060;15.064;2023-03-23T09:17:03;16.87;;;6.90;;
4794;SDS011;2411;47.060;15.064;2023-03-23T09:19:30;35.93;;;9.27;;
4794;SDS011;2411;47.060;15.064;2023-03-23T09:21:58;14.63;;;8.00;;
4794;SDS011;2411;47.060;15.064;2023-03-23T09:24:25;7.97;;;7.10;;
4794;SDS011;2411;47.060;15.064;2023-03-23T09:26:52;10.63;;;7.57;;
4794;SDS011;2411;47.060;15.064;2023-03-23T09:29:18;13.83;;;6.70;;
4794;SDS011;2411;47.060;15.064;2023-03-23T09:31:46;20.90;;;7.63;;
4794;SDS011;2411;47.060;15.064;2023-03-23T09:34:13;15.07;;;7.20;;
4794;SDS011;2411;47.060;15.064;2023-03-23T09:36:41;8.87;;;5.67;;
4794;SDS011;2411;47.060;15.064;2023-03-23T09:39:11;12.87;;;5.93;;
4794;SDS011;2411;47.060;15.064;2023-03-23T09:44:17;12.60;;;6.40;;
4794;SDS011;2411;47.060;15.064;2023-03-23T09:47:20;14.10;;;6.40;;
4794;SDS011;2411;47.060;15.064;2023-03-23T09:50:07;10.07;;;6.07;;
4794;SDS011;2411;47.060;15.064;2023-03-23T09:55:28;8.23;;;5.30;;
4794;SDS011;2411;47.060;15.064;2023-03-23T10:00:37;7.60;;;4.67;;
4794;SDS011;2411;47.060;15.064;2023-03-23T10:03:30;5.70;;;4.63;;
4794;SDS011;2411;47.060;15.064;2023-03-23T10:06:02;7.00;;;4.70;;
4794;SDS011;2411;47.060;15.064;2023-03-23T10:08:30;5.40;;;4.93;;
4794;SDS011;2411;47.060;15.064;2023-03-23T10:11:09;7.60;;;5.20;;
4794;SDS011;2411;47.060;15.064;2023-03-23T10:13:51;5.03;;;4.63;;
4794;SDS011;2411;47.060;15.064;2023-03-23T10:16:38;6.70;;;3.77;;
4794;SDS011;2411;47.060;15.064;2023-03-23T10:19:24;6.00;;;3.87;;
4794;SDS011;2411;47.060;15.064;2023-03-23T10:22:02;5.20;;;4.17;;
4794;SDS011;2411;47.060;15.064;2023-03-23T10:24:36;4.40;;;4.07;;
4794;SDS011;2411;47.060;15.064;2023-03-23T10:32:54;4.33;;;3.50;;
4794;SDS011;2411;47.060;15.064;2023-03-23T10:35:45;4.53;;;3.60;;
4794;SDS011;2411;47.060;15.064;2023-03-23T10:38:23;4.10;;;3.80;;
4794;SDS011;2411;47.060;15.064;2023-03-23T10:41:01;4.40;;;4.10;;
4794;SDS011;2411;47.060;15.064;2023-03-23T10:43:32;6.00;;;3.50;;
4794;SDS011;2411;47.060;15.064;2023-03-23T10:46:01;6.17;;;3.90;;
4794;SDS011;2411;47.060;15.064;2023-03-23T10:48:36;4.30;;;3.87;;
4794;SDS011;2411;47.060;15.064;2023-03-23T10:51:04;5.07;;;3.43;;
4794;SDS011;2411;47.060;15.064;2023-03-23T10:53:38;4.03;;;3.63;;
4794;SDS011;2411;47.060;15.064;2023-03-23T10:56:22;7.50;;;3.53;;
4794;SDS011;2411;47.060;15.064;2023-03-23T10:58:49;3.90;;;3.60;;
4794;SDS011;2411;47.060;15.064;2023-03-23T11:01:15;3.70;;;3.40;;
4794;SDS011;2411;47.060;15.064;2023-03-23T11:03:46;6.03;;;3.30;;
4794;SDS011;2411;47.060;15.064;2023-03-23T11:06:23;4.40;;;4.03;;
4794;SDS011;2411;47.060;15.064;2023-03-23T11:09:00;6.20;;;5.50;;
4794;SDS011;2411;47.060;15.064;2023-03-23T11:11:40;4.90;;;3.30;;
4794;SDS011;2411;47.060;15.064;2023-03-23T11:16:55;5.33;;;4.20;;
4794;SDS011;2411;47.060;15.064;2023-03-23T11:19:30;4.43;;;3.70;;
4794;SDS011;2411;47.060;15.064;2023-03-23T11:24:42;5.03;;;3.73;;
4794;SDS011;2411;47.060;15.064;2023-03-23T11:27:10;5.73;;;3.60;;
4794;SDS011;2411;47.060;15.064;2023-03-23T11:32:36;3.67;;;3.37;;
4794;SDS011;2411;47.060;15.064;2023-03-23T11:35:03;4.63;;;2.93;;
4794;SDS011;2411;47.060;15.064;2023-03-23T11:37:55;3.43;;;3.13;;
4794;SDS011;2411;47.060;15.064;2023-03-23T11:40:22;5.00;;;3.90;;
4794;SDS011;2411;47.060;15.064;2023-03-23T11:42:58;4.13;;;3.80;;
4794;SDS011;2411;47.060;15.064;2023-03-23T11:48:49;4.63;;;4.23;;
4794;SDS011;2411;47.060;15.064;2023-03-23T11:51:11;5.63;;;4.33;;
4794;SDS011;2411;47.060;15.064;2023-03-23T11:56:41;4.10;;;3.70;;
4794;SDS011;2411;47.060;15.064;2023-03-23T11:59:13;3.47;;;3.17;;
4794;SDS011;2411;47.060;15.064;2023-03-23T12:18:19;5.43;;;3.80;;
4794;SDS011;2411;47.060;15.064;2023-03-23T12:37:19;5.90;;;3.73;;
4794;SDS011;2411;47.060;15.064;2023-03-23T12:40:09;3.07;;;2.87;;
4794;SDS011;2411;47.060;15.064;2023-03-23T12:48:11;7.40;;;3.60;;
4794;SDS011;2411;47.060;15.064;2023-03-23T12:56:20;5.67;;;3.80;;
4794;SDS011;2411;47.060;15.064;2023-03-23T12:58:53;13.43;;;3.30;;
4794;SDS011;2411;47.060;15.064;2023-03-23T13:01:32;5.03;;;3.50;;
4794;SDS011;2411;47.060;15.064;2023-03-23T13:04:10;4.13;;;3.70;;
4794;SDS011;2411;47.060;15.064;2023-03-23T13:06:42;3.50;;;3.20;;
4794;SDS011;2411;47.060;15.064;2023-03-23T13:09:23;9.03;;;3.53;;
4794;SDS011;2411;47.060;15.064;2023-03-23T13:12:02;7.90;;;3.20;;
4794;SDS011;2411;47.060;15.064;2023-03-23T13:17:31;5.50;;;3.53;;
4794;SDS011;2411;47.060;15.064;2023-03-23T13:22:43;5.43;;;3.43;;
4794;SDS011;2411;47.060;15.064;2023-03-23T13:28:28;3.93;;;2.80;;
4794;SDS011;2411;47.060;15.064;2023-03-23T13:30:57;4.23;;;3.70;;
4794;SDS011;2411;47.060;15.064;2023-03-23T13:33:28;3.77;;;3.47;;
4794;SDS011;2411;47.060;15.064;2023-03-23T13:36:11;5.27;;;3.17;;
4794;SDS011;2411;47.060;15.064;2023-03-23T13:38:44;4.37;;;3.13;;
4794;SDS011;2411;47.060;15.064;2023-03-23T13:41:13;6.50;;;3.80;;
4794;SDS011;2411;47.060;15.064;2023-03-23T13:43:42;2.97;;;2.77;;
4794;SDS011;2411;47.060;15.064;2023-03-23T13:46:12;3.70;;;2.60;;
4794;SDS011;2411;47.060;15.064;2023-03-23T13:48:40;7.50;;;2.57;;
4794;SDS011;2411;47.060;15.064;2023-03-23T13:51:32;6.10;;;3.83;;
4794;SDS011;2411;47.060;15.064;2023-03-23T13:54:23;3.40;;;2.67;;
4794;SDS011;2411;47.060;15.064;2023-03-23T14:01:52;6.60;;;3.83;;
4794;SDS011;2411;47.060;15.064;2023-03-23T14:04:20;3.60;;;3.30;;
4794;SDS011;2411;47.060;15.064;2023-03-23T14:06:49;4.03;;;3.63;;
4794;SDS011;2411;47.060;15.064;2023-03-23T14:09:30;6.70;;;3.47;;
4794;SDS011;2411;47.060;15.064;2023-03-23T14:12:13;4.03;;;3.63;;
4794;SDS011;2411;47.060;15.064;2023-03-23T14:14:47;5.17;;;3.60;;
4794;SDS011;2411;47.060;15.064;2023-03-23T14:17:20;3.40;;;3.17;;
4794;SDS011;2411;47.060;15.064;2023-03-23T14:19:50;5.20;;;3.27;;
4794;SDS011;2411;47.060;15.064;2023-03-23T14:22:25;4.50;;;3.60;;
4794;SDS011;2411;47.060;15.064;2023-03-23T14:24:58;7.90;;;3.63;;
4794;SDS011;2411;47.060;15.064;2023-03-23T14:27:38;3.93;;;3.47;;
4794;SDS011;2411;47.060;15.064;2023-03-23T14:30:07;4.00;;;3.60;;
4794;SDS011;2411;47.060;15.064;2023-03-23T14:32:39;3.40;;;3.10;;
4794;SDS011;2411;47.060;15.064;2023-03-23T14:35:07;4.90;;;3.90;;
4794;SDS011;2411;47.060;15.064;2023-03-23T14:37:39;5.13;;;3.20;;
4794;SDS011;2411;47.060;15.064;2023-03-23T14:40:08;6.00;;;3.33;;
4794;SDS011;2411;47.060;15.064;2023-03-23T14:42:40;3.70;;;3.40;;
4794;SDS011;2411;47.060;15.064;2023-03-23T14:45:07;5.70;;;3.30;;
4794;SDS011;2411;47.060;15.064;2023-03-23T14:47:40;4.83;;;3.90;;
4794;SDS011;2411;47.060;15.064;2023-03-23T14:50:27;5.17;;;3.80;;
4794;SDS011;2411;47.060;15.064;2023-03-23T14:53:09;5.83;;;3.77;;
4794;SDS011;2411;47.060;15.064;2023-03-23T14:55:49;8.00;;;4.00;;
4794;SDS011;2411;47.060;15.064;2023-03-23T14:58:21;5.43;;;3.10;;
4794;SDS011;2411;47.060;15.064;2023-03-23T15:00:56;3.20;;;2.90;;
4794;SDS011;2411;47.060;15.064;2023-03-23T15:03:33;3.53;;;3.23;;
4794;SDS011;2411;47.060;15.064;2023-03-23T15:06:04;6.37;;;4.93;;
4794;SDS011;2411;47.060;15.064;2023-03-23T15:08:36;4.20;;;3.80;;
4794;SDS011;2411;47.060;15.064;2023-03-23T15:11:06;5.33;;;3.40;;
4794;SDS011;2411;47.060;15.064;2023-03-23T15:13:47;5.50;;;3.53;;
4794;SDS011;2411;47.060;15.064;2023-03-23T15:16:20;7.90;;;3.37;;
4794;SDS011;2411;47.060;15.064;2023-03-23T15:18:49;4.23;;;3.83;;
4794;SDS011;2411;47.060;15.064;2023-03-23T15:21:21;9.67;;;3.50;;
4794;SDS011;2411;47.060;15.064;2023-03-23T15:23:59;4.03;;;3.27;;
4794;SDS011;2411;47.060;15.064;2023-03-23T15:26:31;4.77;;;4.27;;
4794;SDS011;2411;47.060;15.064;2023-03-23T15:31:52;3.77;;;3.40;;
4794;SDS011;2411;47.060;15.064;2023-03-23T15:34:34;4.60;;;4.10;;
4794;SDS011;2411;47.060;15.064;2023-03-23T15:37:06;3.30;;;3.00;;
4794;SDS011;2411;47.060;15.064;2023-03-23T15:39:44;3.50;;;3.20;;
4794;SDS011;2411;47.060;15.064;2023-03-23T15:42:22;5.10;;;3.97;;
4794;SDS011;2411;47.060;15.064;2023-03-23T15:52:58;9.23;;;6.10;;
4794;SDS011;2411;47.060;15.064;2023-03-23T15:55:25;6.47;;;5.00;;
4794;SDS011;2411;47.060;15.064;2023-03-23T15:58:00;3.93;;;3.57;;
4794;SDS011;2411;47.060;15.064;2023-03-23T16:00:37;6.93;;;4.00;;
4794;SDS011;2411;47.060;15.064;2023-03-23T16:03:06;9.37;;;3.80;;
4794;SDS011;2411;47.060;15.064;2023-03-23T16:05:37;4.13;;;3.80;;
4794;SDS011;2411;47.060;15.064;2023-03-23T16:08:07;4.70;;;4.10;;
4794;SDS011;2411;47.060;15.064;2023-03-23T16:10:36;5.90;;;4.07;;
4794;SDS011;2411;47.060;15.064;2023-03-23T16:13:03;4.30;;;3.80;;
4794;SDS011;2411;47.060;15.064;2023-03-23T16:15:31;5.43;;;4.07;;
4794;SDS011;2411;47.060;15.064;2023-03-23T16:17:58;3.93;;;3.63;;
4794;SDS011;2411;47.060;15.064;2023-03-23T16:20:27;9.77;;;3.90;;
4794;SDS011;2411;47.060;15.064;2023-03-23T16:22:55;4.57;;;4.17;;
4794;SDS011;2411;47.060;15.064;2023-03-23T16:25:23;6.90;;;3.77;;
4794;SDS011;2411;47.060;15.064;2023-03-23T16:27:50;5.70;;;4.57;;
4794;SDS011;2411;47.060;15.064;2023-03-23T16:30:22;9.10;;;5.00;;
4794;SDS011;2411;47.060;15.064;2023-03-23T16:32:51;5.13;;;3.93;;
4794;SDS011;2411;47.060;15.064;2023-03-23T16:35:22;6.93;;;4.00;;
4794;SDS011;2411;47.060;15.064;2023-03-23T16:37:51;8.53;;;4.40;;
4794;SDS011;2411;47.060;15.064;2023-03-23T16:40:37;4.53;;;4.07;;
4794;SDS011;2411;47.060;15.064;2023-03-23T16:43:04;7.93;;;4.07;;
4794;SDS011;2411;47.060;15.064;2023-03-23T16:45:38;7.30;;;5.30;;
4794;SDS011;2411;47.060;15.064;2023-03-23T16:48:09;15.70;;;5.53;;
4794;SDS011;2411;47.060;15.064;2023-03-23T16:50:38;9.07;;;4.70;;
4794;SDS011;2411;47.060;15.064;2023-03-23T16:53:06;11.23;;;4.60;;
4794;SDS011;2411;47.060;15.064;2023-03-23T16:55:34;5.23;;;4.23;;
4794;SDS011;2411;47.060;15.064;2023-03-23T16:58:03;7.17;;;4.07;;
4794;SDS011;2411;47.060;15.064;2023-03-23T17:00:44;4.07;;;3.77;;
4794;SDS011;2411;47.060;15.064;2023-03-23T17:03:13;5.80;;;3.47;;
4794;SDS011;2411;47.060;15.064;2023-03-23T17:05:42;9.33;;;4.40;;
4794;SDS011;2411;47.060;15.064;2023-03-23T17:08:10;4.40;;;4.00;;
4794;SDS011;2411;47.060;15.064;2023-03-23T17:10:38;13.13;;;3.97;;
4794;SDS011;2411;47.060;15.064;2023-03-23T17:13:06;7.70;;;4.50;;
4794;SDS011;2411;47.060;15.064;2023-03-23T17:15:38;8.23;;;4.17;;
4794;SDS011;2411;47.060;15.064;2023-03-23T17:18:08;5.20;;;4.70;;
4794;SDS011;2411;47.060;15.064;2023-03-23T17:20:36;5.27;;;4.73;;
4794;SDS011;2411;47.060;15.064;2023-03-23T17:23:04;6.37;;;4.30;;